Time;durP1;ratioP1;P1;durP2;ratioP2;P2;SDS_P1;SDS_P2;PMS_P1;PMS_P2;Temp;Humidity;BMP_temperature;BMP_pressure;BME280_temperature;BME280_humidity;BME280_pressure;Samples;Min_cycle;Max_cycle;Signal;HPM_P1;HPM_P2
2022/03/11 00:00:52;;;;;;;;;;;9.90;87.70;;;;;;5053035;28;20003;-62
2022/03/11 00:03:20;;;;;;;;;;;9.90;86.50;;;;;;5053347;28;19966;-62
2022/03/11 00:05:45;;;;;;;;;;;9.90;86.30;;;;;;5052891;28;19920;-60
2022/03/11 00:08:11;;;;;;;;;;;9.80;86.70;;;;;;5052946;28;20289;-61
2022/03/11 00:10:37;;;;;;;;;;;9.80;86.40;;;;;;5052906;28;19963;-59
2022/03/11 00:13:03;;;;;;;;;;;9.80;86.60;;;;;;5053446;28;19916;-60
2022/03/11 00:15:28;;;;;;;;;;;9.80;86.30;;;;;;5053543;28;20381;-61
2022/03/11 00:17:54;;;;;;;;;;;9.80;86.60;;;;;;5053246;28;19912;-62
2022/03/11 00:20:20;;;;;;;;;;;9.80;87.30;;;;;;5052251;28;20008;-60
2022/03/11 00:22:49;;;;;;;;;;;9.80;86.80;;;;;;5052669;28;19913;-61
2022/03/11 00:25:16;;;;;;;;;;;9.80;87.60;;;;;;5053232;28;19932;-62
2022/03/11 00:27:42;;;;;;;;;;;9.80;88.40;;;;;;5053127;28;19927;-62
2022/03/11 00:30:08;;;;;;;;;;;9.80;87.60;;;;;;5053260;28;19913;-61
2022/03/11 00:32:33;;;;;;;;;;;9.80;90.10;;;;;;5052304;28;19932;-61
2022/03/11 00:34:59;;;;;;;;;;;9.80;88.70;;;;;;5052052;28;19913;-61
2022/03/11 00:37:25;;;;;;;;;;;9.80;89.10;;;;;;5052468;28;19916;-63
2022/03/11 00:39:51;;;;;;;;;;;9.80;88.70;;;;;;5052893;28;20337;-62
2022/03/11 00:42:16;;;;;;;;;;;9.80;88.10;;;;;;5053154;28;19909;-63
2022/03/11 00:44:42;;;;;;;;;;;9.80;88.60;;;;;;5052641;28;20047;-62
2022/03/11 00:47:09;;;;;;;;;;;9.80;87.80;;;;;;5051910;28;19924;-62
2022/03/11 00:49:35;;;;;;;;;;;9.80;89.70;;;;;;5051264;28;19917;-62
2022/03/11 00:52:01;;;;;;;;;;;9.70;88.50;;;;;;5051101;28;20427;-62
2022/03/11 00:54:26;;;;;;;;;;;9.80;88.40;;;;;;5052367;28;19912;-61
2022/03/11 00:56:52;;;;;;;;;;;9.70;88.30;;;;;;5052759;28;19920;-62
2022/03/11 00:59:17;;;;;;;;;;;9.80;88.30;;;;;;5050851;28;20281;-62
2022/03/11 01:01:43;;;;;;;;;;;9.80;89.30;;;;;;5051801;28;19923;-62
2022/03/11 01:04:08;;;;;;;;;;;9.80;88.90;;;;;;5050427;28;19955;-61
2022/03/11 01:06:34;;;;;;;;;;;9.90;89.20;;;;;;5052153;28;20382;-62
2022/03/11 01:08:59;;;;;;;;;;;9.90;88.60;;;;;;5052944;28;19924;-61
2022/03/11 01:11:25;;;;;;;;;;;9.90;88.80;;;;;;5052094;28;19909;-61
2022/03/11 01:13:50;;;;;;;;;;;10.00;88.70;;;;;;5051701;28;20274;-62
2022/03/11 01:16:16;;;;;;;;;;;10.00;88.70;;;;;;5051634;28;20460;-62
2022/03/11 01:18:42;;;;;;;;;;;10.00;88.60;;;;;;5051373;28;20688;-62
2022/03/11 01:21:08;;;;;;;;;;;9.90;89.40;;;;;;5053043;28;19969;-60
2022/03/11 01:23:34;;;;;;;;;;;10.00;89.70;;;;;;5051506;28;20369;-62
2022/03/11 01:25:59;;;;;;;;;;;9.90;90.50;;;;;;5051504;28;19912;-61
2022/03/11 01:28:25;;;;;;;;;;;9.80;90.00;;;;;;5051721;28;19923;-62
2022/03/11 01:30:50;;;;;;;;;;;9.80;90.40;;;;;;5051402;28;20722;-62
2022/03/11 01:33:16;;;;;;;;;;;9.80;89.50;;;;;;5051755;28;19908;-62
2022/03/11 01:35:41;;;;;;;;;;;9.90;90.30;;;;;;5051655;28;19913;-62
2022/03/11 01:38:07;;;;;;;;;;;9.90;90.10;;;;;;5051464;28;20325;-62
2022/03/11 01:40:33;;;;;;;;;;;9.80;89.50;;;;;;5051122;28;19920;-62
2022/03/11 01:42:58;;;;;;;;;;;9.80;90.60;;;;;;5051276;28;19955;-61
2022/03/11 01:45:24;;;;;;;;;;;9.70;90.50;;;;;;5051356;28;19966;-62
2022/03/11 01:47:49;;;;;;;;;;;9.70;90.60;;;;;;5051898;28;19944;-61
2022/03/11 01:50:14;;;;;;;;;;;9.70;90.10;;;;;;5051022;28;20366;-62
2022/03/11 01:52:40;;;;;;;;;;;9.70;90.80;;;;;;5051446;28;19917;-61
2022/03/11 01:55:06;;;;;;;;;;;9.80;91.10;;;;;;5050917;28;19921;-61
2022/03/11 01:57:35;;;;;;;;;;;9.80;90.70;;;;;;5050601;28;19908;-63
2022/03/11 02:00:01;;;;;;;;;;;9.80;90.50;;;;;;5051139;28;19932;-62
2022/03/11 02:02:26;;;;;;;;;;;9.80;90.90;;;;;;5050438;28;19974;-61
2022/03/11 02:04:52;;;;;;;;;;;9.80;90.70;;;;;;5050344;28;20374;-62
2022/03/11 02:07:17;;;;;;;;;;;9.90;90.60;;;;;;5051146;28;19913;-61
2022/03/11 02:09:43;;;;;;;;;;;9.90;91.20;;;;;;5051094;28;19960;-61
2022/03/11 02:12:09;;;;;;;;;;;9.90;91.10;;;;;;5051142;28;19936;-62
2022/03/11 02:14:34;;;;;;;;;;;9.90;91.10;;;;;;5049888;28;19939;-59
2022/03/11 02:17:00;;;;;;;;;;;9.90;91.10;;;;;;5050991;28;20293;-62
2022/03/11 02:19:25;;;;;;;;;;;10.00;91.10;;;;;;5050767;28;20297;-62
2022/03/11 02:21:52;;;;;;;;;;;9.90;91.40;;;;;;5050757;28;20400;-60
2022/03/11 02:24:17;;;;;;;;;;;9.90;91.10;;;;;;5051053;28;19909;-62
2022/03/11 02:26:43;;;;;;;;;;;9.90;91.00;;;;;;5050957;28;19916;-62
2022/03/11 02:29:09;;;;;;;;;;;10.00;91.40;;;;;;5050028;28;20349;-61
2022/03/11 02:31:34;;;;;;;;;;;10.00;91.40;;;;;;5050295;28;20336;-62
2022/03/11 02:34:01;;;;;;;;;;;10.00;91.00;;;;;;5050579;28;20420;-61
2022/03/11 02:36:27;;;;;;;;;;;9.90;91.10;;;;;;5050416;28;20362;-61
2022/03/11 02:38:53;;;;;;;;;;;10.00;91.30;;;;;;5051147;28;19909;-60
2022/03/11 02:41:18;;;;;;;;;;;10.00;91.30;;;;;;5050657;28;19966;-61
2022/03/11 02:43:44;;;;;;;;;;;9.90;91.40;;;;;;5049637;28;19912;-61
2022/03/11 02:46:10;;;;;;;;;;;10.00;91.40;;;;;;5050479;28;19912;-61
2022/03/11 02:48:35;;;;;;;;;;;10.00;91.70;;;;;;5050295;28;19909;-60
2022/03/11 02:51:01;;;;;;;;;;;9.90;91.50;;;;;;5051486;28;19909;-61
2022/03/11 02:53:27;;;;;;;;;;;9.90;91.70;;;;;;5062522;28;19919;-61
2022/03/11 02:55:52;;;;;;;;;;;9.80;91.70;;;;;;5049999;28;19921;-61
2022/03/11 02:58:18;;;;;;;;;;;9.80;91.80;;;;;;5049971;28;20293;-60
2022/03/11 03:00:44;;;;;;;;;;;9.70;92.00;;;;;;5050444;28;19925;-61
2022/03/11 03:03:10;;;;;;;;;;;9.70;92.00;;;;;;5051043;28;19909;-61
2022/03/11 03:05:35;;;;;;;;;;;9.70;91.90;;;;;;5050255;28;19925;-61
2022/03/11 03:08:01;;;;;;;;;;;9.70;92.20;;;;;;5050193;28;19916;-61
2022/03/11 03:10:26;;;;;;;;;;;9.50;92.30;;;;;;5050376;28;20332;-62
2022/03/11 03:12:52;;;;;;;;;;;9.50;92.30;;;;;;5052636;28;20007;-59
2022/03/11 03:15:17;;;;;;;;;;;9.50;92.40;;;;;;5055002;28;19915;-61
2022/03/11 03:17:43;;;;;;;;;;;9.50;92.20;;;;;;5054642;28;19963;-61
2022/03/11 03:20:09;;;;;;;;;;;9.50;92.10;;;;;;5053815;28;19920;-61
2022/03/11 03:22:35;;;;;;;;;;;9.50;92.50;;;;;;5053983;28;19919;-60
2022/03/11 03:25:01;;;;;;;;;;;9.40;92.30;;;;;;5054355;28;19913;-59
2022/03/11 03:27:26;;;;;;;;;;;9.40;92.70;;;;;;5053840;28;19915;-61
2022/03/11 03:29:52;;;;;;;;;;;9.40;92.30;;;;;;5054494;28;19909;-60
2022/03/11 03:32:17;;;;;;;;;;;9.30;92.40;;;;;;5066030;28;20028;-61
2022/03/11 03:34:43;;;;;;;;;;;9.30;92.60;;;;;;5053589;28;19913;-62
2022/03/11 03:37:10;;;;;;;;;;;9.40;92.50;;;;;;5054146;28;20385;-60
2022/03/11 03:39:36;;;;;;;;;;;9.30;92.80;;;;;;5053532;28;19955;-61
2022/03/11 03:42:02;;;;;;;;;;;9.30;92.40;;;;;;5053667;28;19913;-60
2022/03/11 03:44:28;;;;;;;;;;;9.20;92.90;;;;;;5053697;28;19913;-61
2022/03/11 03:46:53;;;;;;;;;;;9.20;92.20;;;;;;5053613;28;20442;-61
2022/03/11 03:49:19;;;;;;;;;;;9.10;93.40;;;;;;5053367;28;19913;-63
2022/03/11 03:51:45;;;;;;;;;;;9.10;93.40;;;;;;5037480;28;19913;-62
2022/03/11 03:54:11;;;;;;;;;;;9.10;93.20;;;;;;5054263;28;19920;-62
2022/03/11 03:56:41;;;;;;;;;;;9.10;93.20;;;;;;5052749;28;19921;-62
2022/03/11 03:59:07;;;;;;;;;;;9.10;93.40;;;;;;5053235;28;19948;-62
2022/03/11 04:01:36;;;;;;;;;;;9.10;93.80;;;;;;5053709;28;19917;-61
2022/03/11 04:04:05;;;;;;;;;;;9.00;93.80;;;;;;5053180;28;19928;-61
2022/03/11 04:06:32;;;;;;;;;;;9.00;93.80;;;;;;5053602;28;19935;-60
2022/03/11 04:08:58;;;;;;;;;;;9.00;93.80;;;;;;5051528;28;19913;-62
2022/03/11 04:11:23;;;;;;;;;;;8.90;94.20;;;;;;5053084;28;19955;-61
2022/03/11 04:13:50;;;;;;;;;;;9.00;94.10;;;;;;5053168;28;19920;-63
2022/03/11 04:16:16;;;;;;;;;;;9.00;94.80;;;;;;5052759;28;19913;-63
2022/03/11 04:18:41;;;;;;;;;;;8.90;94.80;;;;;;5053334;28;19913;-62
2022/03/11 04:21:07;;;;;;;;;;;8.90;95.00;;;;;;5053719;28;19953;-62
2022/03/11 04:23:32;;;;;;;;;;;8.80;94.60;;;;;;5052343;28;20436;-64
2022/03/11 04:25:58;;;;;;;;;;;8.80;94.80;;;;;;5052187;28;19912;-62
2022/03/11 04:28:23;;;;;;;;;;;8.80;95.00;;;;;;5053385;28;20336;-62
2022/03/11 04:30:49;;;;;;;;;;;8.90;94.80;;;;;;5052655;28;19948;-61
2022/03/11 04:33:14;;;;;;;;;;;8.80;94.80;;;;;;5053603;28;19908;-64
2022/03/11 04:35:40;;;;;;;;;;;8.80;94.60;;;;;;5052631;28;19940;-65
2022/03/11 04:38:05;;;;;;;;;;;8.80;94.80;;;;;;5052280;28;19913;-66
2022/03/11 04:40:31;;;;;;;;;;;8.90;95.00;;;;;;5052470;28;19932;-68
2022/03/11 04:42:56;;;;;;;;;;;8.80;94.50;;;;;;5052727;28;19971;-67
2022/03/11 04:45:22;;;;;;;;;;;8.70;95.40;;;;;;5053107;28;19935;-69
2022/03/11 04:47:47;;;;;;;;;;;8.70;94.70;;;;;;5053408;28;19909;-69
2022/03/11 04:50:13;;;;;;;;;;;8.70;95.10;;;;;;5052232;28;19916;-69
2022/03/11 04:52:38;;;;;;;;;;;8.70;94.70;;;;;;5052059;28;19916;-69
2022/03/11 04:55:04;;;;;;;;;;;8.60;95.40;;;;;;5052085;28;20021;-69
2022/03/11 04:57:30;;;;;;;;;;;8.60;95.20;;;;;;5052255;28;19909;-65
2022/03/11 04:59:55;;;;;;;;;;;8.60;95.80;;;;;;5052875;28;19923;-68
2022/03/11 05:02:24;;;;;;;;;;;8.60;95.80;;;;;;5052076;28;20373;-68
2022/03/11 05:04:50;;;;;;;;;;;8.50;95.70;;;;;;5051936;28;19913;-68
2022/03/11 05:07:15;;;;;;;;;;;8.50;96.00;;;;;;5051915;28;19999;-66
2022/03/11 05:09:41;;;;;;;;;;;8.50;96.60;;;;;;5052339;28;19959;-68
2022/03/11 05:12:07;;;;;;;;;;;8.50;95.90;;;;;;5052818;28;20015;-68
2022/03/11 05:14:32;;;;;;;;;;;8.50;96.70;;;;;;5051653;28;20023;-67
2022/03/11 05:16:58;;;;;;;;;;;8.40;96.40;;;;;;5052129;28;19917;-66
2022/03/11 05:19:24;;;;;;;;;;;8.50;96.60;;;;;;5051943;28;19943;-65
2022/03/11 05:21:49;;;;;;;;;;;8.50;97.30;;;;;;5051709;28;19920;-67
2022/03/11 05:24:15;;;;;;;;;;;8.40;96.60;;;;;;5052313;28;19961;-67
2022/03/11 05:26:41;;;;;;;;;;;8.30;96.60;;;;;;5051601;28;20028;-67
2022/03/11 05:29:07;;;;;;;;;;;8.40;96.70;;;;;;5051810;28;19920;-67
2022/03/11 05:31:32;;;;;;;;;;;8.40;97.40;;;;;;5051700;28;19920;-66
2022/03/11 05:34:01;;;;;;;;;;;8.40;97.90;;;;;;5050860;28;19913;-67
2022/03/11 05:36:26;;;;;;;;;;;8.30;97.10;;;;;;5051435;28;20424;-64
2022/03/11 05:38:52;;;;;;;;;;;8.30;97.30;;;;;;5052126;28;19909;-60
2022/03/11 05:41:18;;;;;;;;;;;8.30;97.90;;;;;;5051517;28;20301;-62
2022/03/11 05:43:43;;;;;;;;;;;8.30;97.50;;;;;;5051294;28;20270;-62
2022/03/11 05:46:09;;;;;;;;;;;8.30;98.20;;;;;;5051237;28;19935;-59
2022/03/11 05:48:34;;;;;;;;;;;8.30;98.00;;;;;;5051244;28;19909;-61
2022/03/11 05:51:00;;;;;;;;;;;8.30;98.20;;;;;;5052118;28;20292;-60
2022/03/11 05:53:26;;;;;;;;;;;8.30;98.20;;;;;;5050419;28;20338;-60
2022/03/11 05:55:51;;;;;;;;;;;8.30;98.90;;;;;;5050741;28;20401;-60
2022/03/11 05:58:17;;;;;;;;;;;8.20;98.20;;;;;;5050681;28;19967;-61
2022/03/11 06:00:42;;;;;;;;;;;8.20;99.10;;;;;;5083009;28;20397;-61
2022/03/11 06:03:08;;;;;;;;;;;8.20;98.70;;;;;;5050089;28;20008;-62
2022/03/11 06:05:33;;;;;;;;;;;8.30;98.80;;;;;;5050252;28;19917;-62
2022/03/11 06:07:59;;;;;;;;;;;8.20;99.20;;;;;;5049798;28;20301;-60
2022/03/11 06:10:25;;;;;;;;;;;8.20;98.80;;;;;;5050374;28;19934;-59
2022/03/11 06:12:50;;;;;;;;;;;8.20;98.90;;;;;;5050386;28;19983;-61
2022/03/11 06:15:16;;;;;;;;;;;8.20;99.40;;;;;;5051305;28;19935;-60
2022/03/11 06:17:42;;;;;;;;;;;8.20;99.50;;;;;;5050534;28;19947;-62
2022/03/11 06:20:08;;;;;;;;;;;8.10;99.00;;;;;;5049786;28;20019;-61
2022/03/11 06:22:36;;;;;;;;;;;8.20;99.60;;;;;;5049667;28;19912;-62
2022/03/11 06:25:02;;;;;;;;;;;8.20;99.80;;;;;;5050151;28;19913;-62
2022/03/11 06:27:28;;;;;;;;;;;8.20;99.80;;;;;;5050493;28;20285;-61
2022/03/11 06:29:53;;;;;;;;;;;8.30;99.50;;;;;;5050623;28;19909;-62
2022/03/11 06:32:19;;;;;;;;;;;8.30;99.30;;;;;;5049691;28;19920;-62
2022/03/11 06:34:44;;;;;;;;;;;8.30;99.90;;;;;;5049735;28;19913;-61
2022/03/11 06:37:10;;;;;;;;;;;8.30;99.40;;;;;;5049695;28;20332;-62
2022/03/11 06:39:35;;;;;;;;;;;8.20;99.90;;;;;;5049917;28;19917;-63
2022/03/11 06:42:02;;;;;;;;;;;8.20;99.90;;;;;;5049717;28;19997;-61
2022/03/11 06:44:27;;;;;;;;;;;8.20;99.90;;;;;;5049853;28;19944;-60
2022/03/11 06:46:53;;;;;;;;;;;8.30;99.90;;;;;;5049596;28;20010;-61
2022/03/11 06:49:18;;;;;;;;;;;8.30;99.90;;;;;;5049705;28;19958;-59
2022/03/11 06:51:44;;;;;;;;;;;8.40;99.90;;;;;;5049769;28;19924;-60
2022/03/11 06:54:09;;;;;;;;;;;8.50;99.90;;;;;;5050566;28;19929;-59
2022/03/11 06:56:35;;;;;;;;;;;8.50;99.90;;;;;;5049455;28;19928;-60
2022/03/11 06:59:02;;;;;;;;;;;8.50;99.90;;;;;;5049713;28;19917;-61
2022/03/11 07:01:27;;;;;;;;;;;8.50;99.90;;;;;;5049780;28;20025;-60
2022/03/11 07:03:53;;;;;;;;;;;8.60;99.80;;;;;;5049658;28;20019;-60
2022/03/11 07:06:18;;;;;;;;;;;8.70;99.90;;;;;;5050449;28;19908;-60
2022/03/11 07:08:44;;;;;;;;;;;8.70;99.70;;;;;;5050266;28;19937;-60
2022/03/11 07:11:10;;;;;;;;;;;8.70;99.90;;;;;;5050466;28;20500;-58
2022/03/11 07:13:35;;;;;;;;;;;8.80;99.90;;;;;;5049927;28;20011;-59
2022/03/11 07:16:01;;;;;;;;;;;8.90;99.90;;;;;;5050015;28;19917;-60
2022/03/11 07:18:26;;;;;;;;;;;8.90;99.90;;;;;;5050069;28;20285;-61
2022/03/11 07:20:52;;;;;;;;;;;8.90;99.90;;;;;;5050179;28;19924;-63
2022/03/11 07:23:17;;;;;;;;;;;8.90;99.90;;;;;;5050000;28;20537;-62
2022/03/11 07:25:46;;;;;;;;;;;9.00;99.90;;;;;;5050047;28;19959;-61
2022/03/11 07:28:12;;;;;;;;;;;9.00;99.90;;;;;;5049824;28;20356;-62
2022/03/11 07:30:38;;;;;;;;;;;9.00;99.90;;;;;;5049746;28;19921;-62
2022/03/11 07:33:03;;;;;;;;;;;9.10;99.90;;;;;;5050676;28;19908;-61
2022/03/11 07:35:29;;;;;;;;;;;9.20;99.90;;;;;;5049767;28;20408;-62
2022/03/11 07:37:54;;;;;;;;;;;9.20;99.90;;;;;;5049661;28;20408;-61
2022/03/11 07:40:20;;;;;;;;;;;9.20;99.90;;;;;;5049698;28;19952;-63
2022/03/11 07:42:45;;;;;;;;;;;9.30;99.90;;;;;;5049455;28;19939;-61
2022/03/11 07:45:14;;;;;;;;;;;9.40;99.90;;;;;;5050615;28;19917;-62
2022/03/11 07:47:41;;;;;;;;;;;9.40;99.90;;;;;;5049764;28;19912;-62
2022/03/11 07:50:08;;;;;;;;;;;9.40;99.90;;;;;;5049055;28;19916;-63
2022/03/11 07:52:34;;;;;;;;;;;9.40;99.90;;;;;;5049581;28;19913;-62
2022/03/11 07:54:59;;;;;;;;;;;9.50;99.90;;;;;;5047146;28;19917;-61
2022/03/11 07:57:25;;;;;;;;;;;9.50;99.90;;;;;;5049276;28;19913;-60
2022/03/11 07:59:50;;;;;;;;;;;9.60;99.90;;;;;;5049835;28;19924;-61
2022/03/11 08:02:16;;;;;;;;;;;9.60;99.90;;;;;;5049860;28;19998;-59
2022/03/11 08:04:42;;;;;;;;;;;9.70;99.90;;;;;;5045070;28;19924;-61
2022/03/11 08:07:10;;;;;;;;;;;9.80;99.90;;;;;;5050443;28;19921;-63
2022/03/11 08:09:38;;;;;;;;;;;9.80;99.90;;;;;;5051775;28;20035;-63
2022/03/11 08:12:04;;;;;;;;;;;9.90;99.90;;;;;;5052138;28;19916;-63
2022/03/11 08:14:30;;;;;;;;;;;9.90;99.80;;;;;;5050660;28;19955;-64
2022/03/11 08:16:56;;;;;;;;;;;10.00;99.70;;;;;;5049919;28;19960;-61
2022/03/11 08:19:23;;;;;;;;;;;10.00;99.50;;;;;;5048567;28;19959;-63
2022/03/11 08:21:49;;;;;;;;;;;10.10;99.70;;;;;;5050376;28;20022;-61
2022/03/11 08:24:14;;;;;;;;;;;10.20;99.50;;;;;;5050710;28;20385;-63
2022/03/11 08:26:40;;;;;;;;;;;10.30;99.30;;;;;;5050635;28;19982;-62
2022/03/11 08:29:05;;;;;;;;;;;10.30;99.40;;;;;;5049962;28;20300;-61
2022/03/11 08:31:32;;;;;;;;;;;10.40;98.80;;;;;;5049644;28;19917;-62
2022/03/11 08:33:58;;;;;;;;;;;10.50;99.10;;;;;;5049764;28;19967;-62
2022/03/11 08:36:23;;;;;;;;;;;10.60;98.70;;;;;;5052666;28;19913;-64
2022/03/11 08:38:49;;;;;;;;;;;10.60;98.90;;;;;;5038326;28;20370;-63
2022/03/11 08:41:16;;;;;;;;;;;10.70;98.70;;;;;;5045402;28;19925;-63
2022/03/11 08:43:42;;;;;;;;;;;10.80;98.10;;;;;;5052371;28;19928;-63
2022/03/11 08:46:08;;;;;;;;;;;10.80;98.30;;;;;;5044390;28;19917;-62
2022/03/11 08:48:34;;;;;;;;;;;10.90;98.20;;;;;;5047147;28;19912;-62
2022/03/11 08:50:59;;;;;;;;;;;11.00;98.20;;;;;;5050276;28;19913;-62
2022/03/11 08:53:25;;;;;;;;;;;11.00;97.70;;;;;;5048791;28;19917;-61
2022/03/11 08:55:50;;;;;;;;;;;11.00;97.90;;;;;;5048507;28;20341;-63
2022/03/11 08:58:16;;;;;;;;;;;11.10;97.50;;;;;;5048269;28;20377;-63
2022/03/11 09:00:42;;;;;;;;;;;11.20;97.70;;;;;;5048043;28;19929;-62
2022/03/11 09:03:07;;;;;;;;;;;11.20;97.20;;;;;;5050470;28;20019;-61
2022/03/11 09:05:33;;;;;;;;;;;11.20;97.20;;;;;;5046953;28;19971;-63
2022/03/11 09:07:59;;;;;;;;;;;11.20;97.40;;;;;;5047321;28;19952;-61
2022/03/11 09:10:24;;;;;;;;;;;11.40;96.50;;;;;;5048074;28;19913;-61
2022/03/11 09:12:50;;;;;;;;;;;11.30;97.00;;;;;;5041474;28;20007;-62
2022/03/11 09:15:16;;;;;;;;;;;11.40;96.60;;;;;;5050428;28;19912;-62
2022/03/11 09:17:42;;;;;;;;;;;11.30;96.90;;;;;;5047521;28;19917;-63
2022/03/11 09:20:08;;;;;;;;;;;11.40;96.90;;;;;;5047292;28;19924;-62
2022/03/11 09:22:34;;;;;;;;;;;11.50;96.70;;;;;;5047758;28;19942;-63
2022/03/11 09:25:01;;;;;;;;;;;11.60;96.30;;;;;;5049577;28;19912;-61
2022/03/11 09:27:27;;;;;;;;;;;11.60;95.70;;;;;;5048727;28;20381;-62
2022/03/11 09:29:52;;;;;;;;;;;11.60;95.70;;;;;;5049323;28;20007;-60
2022/03/11 09:32:18;;;;;;;;;;;11.70;95.50;;;;;;5047261;28;19999;-61
2022/03/11 09:34:44;;;;;;;;;;;11.70;95.90;;;;;;5047931;28;20324;-61
2022/03/11 09:37:10;;;;;;;;;;;11.90;95.90;;;;;;5048063;28;19966;-62
2022/03/11 09:39:36;;;;;;;;;;;12.00;95.80;;;;;;5048286;28;19913;-61
2022/03/11 09:42:03;;;;;;;;;;;12.10;95.30;;;;;;5050619;28;20581;-63
2022/03/11 09:44:28;;;;;;;;;;;12.20;95.20;;;;;;5046424;28;20023;-62
2022/03/11 09:46:54;;;;;;;;;;;12.30;94.40;;;;;;5047204;28;20055;-62
2022/03/11 09:49:19;;;;;;;;;;;12.20;94.20;;;;;;5043798;28;19913;-61
2022/03/11 09:51:46;;;;;;;;;;;12.30;94.80;;;;;;5047968;28;19920;-61
2022/03/11 09:54:12;;;;;;;;;;;12.20;94.10;;;;;;5049765;28;19913;-63
2022/03/11 09:56:41;;;;;;;;;;;12.20;95.00;;;;;;5047935;28;19921;-62
2022/03/11 09:59:08;;;;;;;;;;;12.30;94.40;;;;;;5045205;28;19917;-61
2022/03/11 10:01:33;;;;;;;;;;;12.40;95.10;;;;;;5047848;28;20373;-61
2022/03/11 10:04:00;;;;;;;;;;;12.60;94.50;;;;;;5046878;28;19913;-61
2022/03/11 10:06:41;;;;;;;;;;;12.60;94.50;;;;;;5048379;28;19913;-63
2022/03/11 10:09:30;;;;;;;;;;;12.50;94.80;;;;;;5049040;28;19924;-63
2022/03/11 10:11:56;;;;;;;;;;;12.50;95.20;;;;;;5048685;28;19994;-62
2022/03/11 10:14:32;;;;;;;;;;;12.50;95.50;;;;;;5047631;28;19916;-63
2022/03/11 10:16:58;;;;;;;;;;;12.40;95.50;;;;;;5048299;28;19948;-64
2022/03/11 10:19:24;;;;;;;;;;;12.50;95.60;;;;;;5047839;28;19924;-62
2022/03/11 10:21:50;;;;;;;;;;;12.50;95.80;;;;;;5047588;28;19921;-64
2022/03/11 10:24:18;;;;;;;;;;;12.60;96.00;;;;;;5049461;28;19916;-63
2022/03/11 10:26:47;;;;;;;;;;;12.90;96.50;;;;;;5047106;28;19920;-61
2022/03/11 10:29:17;;;;;;;;;;;13.00;96.30;;;;;;5047397;28;19955;-63
2022/03/11 10:31:43;;;;;;;;;;;13.10;95.90;;;;;;5043010;28;19960;-60
2022/03/11 10:34:12;;;;;;;;;;;13.10;94.90;;;;;;5047784;28;19919;-64
2022/03/11 10:36:44;;;;;;;;;;;13.10;95.10;;;;;;5047914;28;19913;-61
2022/03/11 10:39:29;;;;;;;;;;;13.10;95.50;;;;;;5048646;28;19924;-61
2022/03/11 10:41:56;;;;;;;;;;;13.20;95.30;;;;;;5050926;28;19924;-63
2022/03/11 10:44:26;;;;;;;;;;;13.20;95.40;;;;;;5041762;28;20330;-63
2022/03/11 10:46:52;;;;;;;;;;;13.10;94.70;;;;;;5047454;28;19939;-62
2022/03/11 10:49:25;;;;;;;;;;;13.10;95.10;;;;;;5048180;28;19913;-63
2022/03/11 10:51:52;;;;;;;;;;;13.10;95.40;;;;;;5047433;28;19916;-64
2022/03/11 10:54:17;;;;;;;;;;;13.10;96.30;;;;;;5049349;28;19921;-62
2022/03/11 10:56:43;;;;;;;;;;;13.10;96.60;;;;;;5047196;28;20668;-59
2022/03/11 10:59:21;;;;;;;;;;;13.00;96.80;;;;;;5047479;28;20366;-62
2022/03/11 11:01:46;;;;;;;;;;;13.10;96.90;;;;;;5047445;28;20965;-64
2022/03/11 11:04:13;;;;;;;;;;;13.10;97.20;;;;;;5043258;28;20385;-61
2022/03/11 11:06:39;;;;;;;;;;;13.20;96.60;;;;;;5047160;28;19920;-60
2022/03/11 11:09:05;;;;;;;;;;;13.10;96.50;;;;;;5049218;28;19917;-62
2022/03/11 11:11:31;;;;;;;;;;;13.00;96.30;;;;;;5046055;28;19916;-62
2022/03/11 11:14:04;;;;;;;;;;;12.90;95.90;;;;;;5047327;28;19912;-62
2022/03/11 11:16:29;;;;;;;;;;;12.80;96.50;;;;;;5044395;28;19999;-62
2022/03/11 11:18:58;;;;;;;;;;;12.80;97.10;;;;;;5046913;28;20008;-63
2022/03/11 11:21:25;;;;;;;;;;;12.80;97.50;;;;;;5044409;28;19925;-63
2022/03/11 11:23:54;;;;;;;;;;;12.80;97.50;;;;;;5048315;28;19931;-63
2022/03/11 11:26:21;;;;;;;;;;;12.80;97.70;;;;;;5046894;28;19912;-63
2022/03/11 11:28:46;;;;;;;;;;;12.80;97.90;;;;;;5047065;28;19913;-64
2022/03/11 11:31:15;;;;;;;;;;;12.80;97.90;;;;;;5047506;28;20336;-63
2022/03/11 11:33:43;;;;;;;;;;;12.70;97.80;;;;;;5049453;28;19971;-62
2022/03/11 11:36:09;;;;;;;;;;;12.70;97.70;;;;;;5051941;28;19919;-62
2022/03/11 11:38:38;;;;;;;;;;;12.70;97.70;;;;;;5050270;28;20007;-64
2022/03/11 11:41:24;;;;;;;;;;;12.70;97.70;;;;;;5052591;28;19925;-64
2022/03/11 11:43:54;;;;;;;;;;;12.70;97.80;;;;;;5051016;28;20297;-62
2022/03/11 11:46:22;;;;;;;;;;;12.60;97.60;;;;;;5051130;28;19970;-64
2022/03/11 11:48:48;;;;;;;;;;;12.60;97.80;;;;;;5050204;28;20007;-64
2022/03/11 11:51:18;;;;;;;;;;;12.60;98.10;;;;;;5052252;28;19912;-63
2022/03/11 11:53:57;;;;;;;;;;;12.60;98.60;;;;;;5050562;28;19919;-65
2022/03/11 11:56:42;;;;;;;;;;;12.60;99.10;;;;;;5050208;28;19990;-65
2022/03/11 11:59:07;;;;;;;;;;;12.60;99.40;;;;;;5048229;28;20309;-65
2022/03/11 12:01:49;;;;;;;;;;;12.70;99.90;;;;;;5050407;28;20418;-63
2022/03/11 12:04:17;;;;;;;;;;;12.70;99.90;;;;;;5050608;28;19917;-64
2022/03/11 12:07:02;;;;;;;;;;;12.70;99.90;;;;;;5050134;28;19948;-63
2022/03/11 12:12:30;;;;;;;;;;;12.70;99.60;;;;;;5050426;28;19963;-62
2022/03/11 12:15:04;;;;;;;;;;;12.80;99.90;;;;;;5050291;28;19970;-64
2022/03/11 12:17:36;;;;;;;;;;;12.80;99.90;;;;;;5047824;28;19958;-63
2022/03/11 12:20:20;;;;;;;;;;;12.80;99.80;;;;;;5050381;28;19921;-64
2022/03/11 12:22:52;;;;;;;;;;;12.80;99.90;;;;;;5049960;28;20377;-64
2022/03/11 12:25:20;;;;;;;;;;;12.70;99.90;;;;;;5049851;28;19938;-62
2022/03/11 12:27:55;;;;;;;;;;;12.70;99.90;;;;;;5049300;28;20425;-63
2022/03/11 12:30:20;;;;;;;;;;;12.70;99.90;;;;;;5050642;28;19917;-64
2022/03/11 12:32:48;;;;;;;;;;;12.80;99.90;;;;;;5049928;28;19920;-61
2022/03/11 12:35:17;;;;;;;;;;;12.70;99.90;;;;;;5049802;28;19921;-63
2022/03/11 12:37:42;;;;;;;;;;;12.80;99.90;;;;;;5049378;28;22120;-60
2022/03/11 12:40:08;;;;;;;;;;;12.80;99.90;;;;;;5049709;28;20366;-63
2022/03/11 12:42:41;;;;;;;;;;;12.70;99.90;;;;;;5051622;28;19913;-64
2022/03/11 12:45:06;;;;;;;;;;;12.80;99.90;;;;;;5050772;28;19920;-64
2022/03/11 12:47:38;;;;;;;;;;;12.80;99.90;;;;;;5049141;28;19916;-63
2022/03/11 12:50:05;;;;;;;;;;;12.80;99.90;;;;;;5048834;28;20023;-61
2022/03/11 12:52:40;;;;;;;;;;;12.80;99.90;;;;;;5049736;28;19951;-63
2022/03/11 12:55:38;;;;;;;;;;;12.80;99.90;;;;;;5047484;28;19917;-61
2022/03/11 12:58:08;;;;;;;;;;;12.80;99.90;;;;;;5046832;28;19916;-61
2022/03/11 13:00:36;;;;;;;;;;;12.90;99.90;;;;;;5046255;28;19940;-63
2022/03/11 13:03:03;;;;;;;;;;;13.10;99.90;;;;;;5047876;28;19952;-62
2022/03/11 13:05:32;;;;;;;;;;;13.30;99.90;;;;;;5046609;28;19912;-61
2022/03/11 13:08:05;;;;;;;;;;;13.40;99.90;;;;;;5046440;28;19924;-63
2022/03/11 13:10:31;;;;;;;;;;;13.50;99.90;;;;;;5046344;28;19935;-63
2022/03/11 13:12:57;;;;;;;;;;;13.50;99.90;;;;;;5046236;28;19913;-64
2022/03/11 13:15:26;;;;;;;;;;;13.50;99.90;;;;;;5047835;28;19948;-62
2022/03/11 13:17:52;;;;;;;;;;;13.50;99.90;;;;;;5047912;28;19916;-63
2022/03/11 13:20:37;;;;;;;;;;;13.50;99.90;;;;;;5046060;28;19928;-64
2022/03/11 13:23:10;;;;;;;;;;;13.50;99.90;;;;;;5046195;28;19921;-62
2022/03/11 13:25:36;;;;;;;;;;;13.60;99.90;;;;;;5046039;28;20003;-60
2022/03/11 13:28:02;;;;;;;;;;;13.80;99.60;;;;;;5046512;28;19935;-62
2022/03/11 13:30:29;;;;;;;;;;;13.80;99.70;;;;;;5046315;28;20364;-64
2022/03/11 13:32:55;;;;;;;;;;;13.80;99.30;;;;;;5045312;28;19939;-62
2022/03/11 13:35:30;;;;;;;;;;;13.80;99.30;;;;;;5048490;28;20378;-60
2022/03/11 13:37:57;;;;;;;;;;;13.70;99.20;;;;;;5048224;28;19920;-61
2022/03/11 13:40:23;;;;;;;;;;;13.70;99.00;;;;;;5051086;28;20019;-62
2022/03/11 13:42:53;;;;;;;;;;;13.70;99.40;;;;;;5048430;28;19929;-61
2022/03/11 13:45:25;;;;;;;;;;;13.70;99.60;;;;;;5049282;28;19913;-63
2022/03/11 13:48:04;;;;;;;;;;;13.70;99.60;;;;;;5049151;28;19971;-62
2022/03/11 13:50:29;;;;;;;;;;;13.80;98.70;;;;;;5046016;28;19979;-62
2022/03/11 13:52:57;;;;;;;;;;;13.80;98.90;;;;;;5047160;28;19913;-62
2022/03/11 13:55:32;;;;;;;;;;;13.80;98.80;;;;;;5047634;28;19925;-62
2022/03/11 13:58:14;;;;;;;;;;;13.70;98.70;;;;;;5047973;28;20007;-62
2022/03/11 14:00:40;;;;;;;;;;;13.70;99.10;;;;;;5046358;28;26850;-61
2022/03/11 14:03:12;;;;;;;;;;;13.70;99.20;;;;;;5049785;28;20396;-63
2022/03/11 14:05:41;;;;;;;;;;;13.70;99.10;;;;;;5047767;28;19974;-62
2022/03/11 14:08:07;;;;;;;;;;;13.70;99.40;;;;;;5047800;28;20370;-61
2022/03/11 14:10:40;;;;;;;;;;;13.60;99.10;;;;;;5047737;28;20167;-63
2022/03/11 14:13:07;;;;;;;;;;;13.50;99.80;;;;;;5047751;28;19989;-63
2022/03/11 14:15:47;;;;;;;;;;;13.60;99.80;;;;;;5046247;28;20391;-63
2022/03/11 14:18:13;;;;;;;;;;;13.70;99.90;;;;;;5049393;28;19917;-63
2022/03/11 14:20:39;;;;;;;;;;;13.80;99.90;;;;;;5047172;28;20479;-62
2022/03/11 14:23:05;;;;;;;;;;;13.60;99.90;;;;;;5047658;28;19944;-63
2022/03/11 14:25:31;;;;;;;;;;;13.60;99.90;;;;;;5047447;28;19936;-61